HAZ3221 RCTP-ZSWZ
Flight info
| Callsign | HAZ3221 |
|---|---|
| Flight time | 0h 51m |
| Altitude | 29000 |
| Route | PIANO1B PIANO L3 VIOLA R596 OKATO OKATO1F |
| Aircraft | A359/H-SDE2E3GHIJ3J4J5LM1ORWXY/LB1D1 |
Departure
| Time | 2026-05-05 10:36 |
|---|---|
| Airport | Taiwan Taoyuan International Airport (RCTP) |
Arrival
| Time | 2026-05-05 11:27 |
|---|---|
| Airport | Wenzhou Longwan International Airport (ZSWZ) |
| Time | Latitude | Longitude | Altitude | Speed | Heading |
|---|---|---|---|---|---|
| 2026-05-05 10:27 | 25.08081 | 121.23192 | 106 ft | 2 kts | 144° |
| 2026-05-05 10:27 | 25.08090 | 121.23185 | 105 ft | 2 kts | 147° |
| 2026-05-05 10:27 | 25.08109 | 121.23173 | 106 ft | 2 kts | 156° |
| 2026-05-05 10:28 | 25.08125 | 121.23167 | 106 ft | 2 kts | 175° |
| 2026-05-05 10:28 | 25.08140 | 121.23171 | 104 ft | 2 kts | 221° |
| 2026-05-05 10:28 | 25.08145 | 121.23175 | 104 ft | 0 kts | 229° |
| 2026-05-05 10:31 | 25.08138 | 121.23167 | 104 ft | 4 kts | 227° |
| 2026-05-05 10:31 | 25.08104 | 121.23124 | 106 ft | 11 kts | 230° |
| 2026-05-05 10:31 | 25.08042 | 121.23042 | 105 ft | 17 kts | 230° |
| 2026-05-05 10:31 | 25.07943 | 121.22915 | 104 ft | 16 kts | 229° |
| 2026-05-05 10:32 | 25.07891 | 121.22849 | 106 ft | 19 kts | 229° |
| 2026-05-05 10:32 | 25.07795 | 121.22724 | 105 ft | 23 kts | 229° |
| 2026-05-05 10:32 | 25.07692 | 121.22595 | 107 ft | 21 kts | 229° |
| 2026-05-05 10:32 | 25.07574 | 121.22444 | 107 ft | 19 kts | 229° |
| 2026-05-05 10:33 | 25.07484 | 121.22329 | 106 ft | 21 kts | 229° |
| 2026-05-05 10:33 | 25.07387 | 121.22206 | 106 ft | 22 kts | 229° |
| 2026-05-05 10:33 | 25.07286 | 121.22075 | 105 ft | 23 kts | 229° |
| 2026-05-05 10:33 | 25.07215 | 121.21985 | 106 ft | 24 kts | 229° |
| 2026-05-05 10:34 | 25.07115 | 121.21841 | 106 ft | 22 kts | 257° |
| 2026-05-05 10:34 | 25.07184 | 121.21730 | 106 ft | 18 kts | 319° |
| 2026-05-05 10:34 | 25.07282 | 121.21651 | 108 ft | 15 kts | 344° |
| 2026-05-05 10:34 | 25.07383 | 121.21717 | 105 ft | 15 kts | 49° |
| 2026-05-05 10:35 | 25.07490 | 121.21853 | 105 ft | 59 kts | 49° |
| 2026-05-05 10:35 | 25.07898 | 121.22372 | 108 ft | 121 kts | 49° |
| 2026-05-05 10:35 | 25.08572 | 121.23231 | 179 ft | 169 kts | 50° |
| 2026-05-05 10:35 | 25.09386 | 121.24244 | 682 ft | 181 kts | 49° |
| 2026-05-05 10:36 | 25.10202 | 121.25237 | 1457 ft | 169 kts | 50° |
| 2026-05-05 10:36 | 25.10954 | 121.26134 | 2244 ft | 152 kts | 50° |
| 2026-05-05 10:36 | 25.11908 | 121.27362 | 2622 ft | 170 kts | 52° |
| 2026-05-05 10:36 | 25.12476 | 121.28030 | 2750 ft | 184 kts | 45° |
| 2026-05-05 10:37 | 25.13698 | 121.28664 | 2937 ft | 208 kts | 9° |
| 2026-05-05 10:37 | 25.15199 | 121.28736 | 3159 ft | 226 kts | 359° |
| 2026-05-05 10:37 | 25.16834 | 121.28677 | 3362 ft | 243 kts | 357° |
| 2026-05-05 10:37 | 25.18555 | 121.28609 | 3549 ft | 259 kts | 357° |
| 2026-05-05 10:38 | 25.20395 | 121.28553 | 3802 ft | 268 kts | 358° |
| 2026-05-05 10:38 | 25.22265 | 121.28519 | 4150 ft | 271 kts | 357° |
| 2026-05-05 10:38 | 25.24170 | 121.28470 | 4506 ft | 276 kts | 357° |
| 2026-05-05 10:38 | 25.26096 | 121.28424 | 4891 ft | 279 kts | 357° |
| 2026-05-05 10:39 | 25.28044 | 121.28381 | 5306 ft | 280 kts | 356° |
| 2026-05-05 10:39 | 25.29996 | 121.28341 | 5747 ft | 281 kts | 356° |
| 2026-05-05 10:39 | 25.31958 | 121.28304 | 6172 ft | 283 kts | 354° |
| 2026-05-05 10:39 | 25.33907 | 121.28266 | 6587 ft | 285 kts | 354° |
| 2026-05-05 10:40 | 25.35881 | 121.28227 | 7070 ft | 284 kts | 356° |
| 2026-05-05 10:40 | 25.37873 | 121.28458 | 7454 ft | 294 kts | 12° |
| 2026-05-05 10:40 | 25.39722 | 121.29445 | 7881 ft | 301 kts | 35° |
| 2026-05-05 10:40 | 25.41234 | 121.31086 | 8278 ft | 308 kts | 47° |
| 2026-05-05 10:41 | 25.42631 | 121.32902 | 8701 ft | 312 kts | 48° |
| 2026-05-05 10:41 | 25.44037 | 121.34739 | 9116 ft | 314 kts | 48° |
| 2026-05-05 10:41 | 25.45446 | 121.36561 | 9518 ft | 318 kts | 47° |
| 2026-05-05 10:41 | 25.46894 | 121.38423 | 9923 ft | 321 kts | 47° |
| 2026-05-05 10:42 | 25.49879 | 121.42247 | 10353 ft | 337 kts | 47° |
| 2026-05-05 10:42 | 25.51433 | 121.44233 | 10466 ft | 346 kts | 47° |
| 2026-05-05 10:42 | 25.53032 | 121.46277 | 10610 ft | 357 kts | 47° |
| 2026-05-05 10:43 | 25.54698 | 121.48409 | 10935 ft | 376 kts | 47° |
| 2026-05-05 10:43 | 25.56439 | 121.50637 | 11430 ft | 387 kts | 47° |
| 2026-05-05 10:43 | 25.58218 | 121.52917 | 12029 ft | 395 kts | 46° |
| 2026-05-05 10:43 | 25.60035 | 121.55246 | 12610 ft | 403 kts | 46° |
| 2026-05-05 10:44 | 25.61881 | 121.57614 | 13285 ft | 409 kts | 46° |
| 2026-05-05 10:44 | 25.63727 | 121.59982 | 13885 ft | 415 kts | 46° |
| 2026-05-05 10:44 | 25.65628 | 121.62421 | 14447 ft | 420 kts | 46° |
| 2026-05-05 10:44 | 25.67548 | 121.64888 | 15024 ft | 425 kts | 47° |
| 2026-05-05 10:45 | 25.69488 | 121.67380 | 15560 ft | 430 kts | 47° |
| 2026-05-05 10:45 | 25.71451 | 121.69904 | 16120 ft | 435 kts | 47° |
| 2026-05-05 10:45 | 25.73437 | 121.72459 | 16704 ft | 440 kts | 47° |
| 2026-05-05 10:45 | 25.75444 | 121.75045 | 17239 ft | 445 kts | 45° |
| 2026-05-05 10:46 | 25.77477 | 121.77660 | 17778 ft | 450 kts | 45° |
| 2026-05-05 10:46 | 25.79543 | 121.80300 | 18293 ft | 455 kts | 45° |
| 2026-05-05 10:46 | 25.81795 | 121.82705 | 18671 ft | 458 kts | 36° |
| 2026-05-05 10:46 | 25.84290 | 121.84918 | 19158 ft | 460 kts | 33° |
| 2026-05-05 10:47 | 25.86876 | 121.87019 | 19681 ft | 462 kts | 31° |
| 2026-05-05 10:47 | 25.89505 | 121.89081 | 20193 ft | 465 kts | 31° |
| 2026-05-05 10:47 | 25.92162 | 121.91154 | 20702 ft | 468 kts | 31° |
| 2026-05-05 10:47 | 25.94831 | 121.93255 | 21232 ft | 472 kts | 31° |
| 2026-05-05 10:48 | 25.97514 | 121.95390 | 21664 ft | 478 kts | 31° |
| 2026-05-05 10:48 | 26.00224 | 121.97566 | 22090 ft | 483 kts | 31° |
| 2026-05-05 10:48 | 26.02918 | 121.99744 | 22525 ft | 488 kts | 31° |
| 2026-05-05 10:48 | 26.05687 | 122.01966 | 22954 ft | 493 kts | 30° |
| 2026-05-05 10:49 | 26.08494 | 122.04169 | 23363 ft | 497 kts | 30° |
| 2026-05-05 10:49 | 26.11343 | 122.06383 | 23759 ft | 502 kts | 30° |
| 2026-05-05 10:49 | 26.14217 | 122.08610 | 24227 ft | 502 kts | 31° |
| 2026-05-05 10:49 | 26.17060 | 122.10822 | 24931 ft | 499 kts | 31° |
| 2026-05-05 10:50 | 26.19921 | 122.13056 | 25229 ft | 506 kts | 31° |
| 2026-05-05 10:50 | 26.22779 | 122.15292 | 25617 ft | 511 kts | 31° |
| 2026-05-05 10:50 | 26.25691 | 122.17575 | 26090 ft | 514 kts | 31° |
| 2026-05-05 10:50 | 26.28619 | 122.19876 | 26549 ft | 517 kts | 31° |
| 2026-05-05 10:51 | 26.31563 | 122.22190 | 27002 ft | 520 kts | 32° |
| 2026-05-05 10:51 | 26.34529 | 122.24522 | 27450 ft | 523 kts | 32° |
| 2026-05-05 10:51 | 26.37514 | 122.26872 | 27895 ft | 526 kts | 32° |
| 2026-05-05 10:51 | 26.40520 | 122.29238 | 28217 ft | 534 kts | 31° |
| 2026-05-05 10:52 | 26.43588 | 122.31650 | 28379 ft | 543 kts | 31° |
| 2026-05-05 10:52 | 26.46688 | 122.34090 | 28794 ft | 547 kts | 31° |
| 2026-05-05 10:52 | 26.49755 | 122.36510 | 29020 ft | 546 kts | 32° |
| 2026-05-05 10:53 | 26.55872 | 122.41350 | 29061 ft | 535 kts | 32° |
| 2026-05-05 10:53 | 26.61944 | 122.46154 | 29064 ft | 535 kts | 31° |
| 2026-05-05 10:54 | 26.68033 | 122.50971 | 29068 ft | 537 kts | 31° |
| 2026-05-05 10:54 | 26.74131 | 122.55802 | 29069 ft | 537 kts | 31° |
| 2026-05-05 10:55 | 26.80181 | 122.60604 | 29069 ft | 537 kts | 31° |
| 2026-05-05 10:55 | 26.86262 | 122.65441 | 29074 ft | 534 kts | 31° |
| 2026-05-05 10:56 | 26.92306 | 122.70251 | 29071 ft | 532 kts | 31° |
| 2026-05-05 10:56 | 26.98339 | 122.75056 | 29073 ft | 532 kts | 31° |
| 2026-05-05 10:57 | 27.04337 | 122.79840 | 29073 ft | 532 kts | 31° |
| 2026-05-05 10:57 | 27.10366 | 122.84661 | 29078 ft | 532 kts | 31° |
| 2026-05-05 10:58 | 27.16464 | 122.89334 | 29061 ft | 527 kts | 23° |
| 2026-05-05 10:58 | 27.19797 | 122.90943 | 29080 ft | 517 kts | 10° |
| 2026-05-05 10:58 | 27.23266 | 122.91746 | 29084 ft | 503 kts | 356° |
| 2026-05-05 10:58 | 27.26705 | 122.91711 | 29098 ft | 486 kts | 343° |
| 2026-05-05 10:59 | 27.29908 | 122.90922 | 29093 ft | 472 kts | 332° |
| 2026-05-05 10:59 | 27.35902 | 122.88239 | 29100 ft | 453 kts | 319° |
| 2026-05-05 10:59 | 27.38433 | 122.86221 | 29085 ft | 439 kts | 309° |
| 2026-05-05 11:00 | 27.40536 | 122.83806 | 29085 ft | 426 kts | 299° |
| 2026-05-05 11:00 | 27.42176 | 122.81095 | 29087 ft | 414 kts | 289° |
| 2026-05-05 11:00 | 27.43336 | 122.78186 | 29087 ft | 403 kts | 281° |
| 2026-05-05 11:01 | 27.44238 | 122.72161 | 29088 ft | 387 kts | 264° |
| 2026-05-05 11:01 | 27.43978 | 122.66131 | 29086 ft | 387 kts | 263° |
| 2026-05-05 11:02 | 27.43899 | 122.60066 | 29093 ft | 388 kts | 263° |
| 2026-05-05 11:02 | 27.43874 | 122.53976 | 29083 ft | 390 kts | 264° |
| 2026-05-05 11:03 | 27.43879 | 122.47908 | 29086 ft | 390 kts | 264° |
| 2026-05-05 11:03 | 27.44058 | 122.41791 | 29087 ft | 396 kts | 271° |
| 2026-05-05 11:04 | 27.45057 | 122.35656 | 29081 ft | 399 kts | 274° |
| 2026-05-05 11:04 | 27.46119 | 122.29553 | 29082 ft | 395 kts | 274° |
| 2026-05-05 11:05 | 27.47175 | 122.23503 | 29084 ft | 394 kts | 274° |
| 2026-05-05 11:05 | 27.48222 | 122.17495 | 29083 ft | 393 kts | 273° |
| 2026-05-05 11:06 | 27.49274 | 122.11449 | 29080 ft | 393 kts | 273° |
| 2026-05-05 11:06 | 27.50322 | 122.05411 | 29092 ft | 392 kts | 274° |
| 2026-05-05 11:07 | 27.51364 | 121.99398 | 29086 ft | 391 kts | 274° |
| 2026-05-05 11:07 | 27.52393 | 121.93435 | 29073 ft | 391 kts | 273° |
| 2026-05-05 11:07 | 27.52911 | 121.90429 | 28808 ft | 391 kts | 273° |
| 2026-05-05 11:08 | 27.53428 | 121.87421 | 28094 ft | 391 kts | 274° |
| 2026-05-05 11:08 | 27.53945 | 121.84423 | 27498 ft | 388 kts | 274° |
| 2026-05-05 11:08 | 27.54458 | 121.81443 | 26939 ft | 385 kts | 274° |
| 2026-05-05 11:08 | 27.54963 | 121.78496 | 26402 ft | 382 kts | 274° |
| 2026-05-05 11:09 | 27.55465 | 121.75562 | 25845 ft | 380 kts | 274° |
| 2026-05-05 11:09 | 27.55963 | 121.72649 | 25285 ft | 378 kts | 274° |
| 2026-05-05 11:09 | 27.56452 | 121.69787 | 24744 ft | 376 kts | 274° |
| 2026-05-05 11:09 | 27.56944 | 121.66905 | 24188 ft | 374 kts | 274° |
| 2026-05-05 11:10 | 27.57433 | 121.64028 | 23625 ft | 373 kts | 274° |
| 2026-05-05 11:10 | 27.57919 | 121.61165 | 22969 ft | 371 kts | 274° |
| 2026-05-05 11:10 | 27.58403 | 121.58319 | 22426 ft | 367 kts | 274° |
| 2026-05-05 11:10 | 27.58887 | 121.55509 | 21906 ft | 364 kts | 275° |
| 2026-05-05 11:11 | 27.59374 | 121.52725 | 21361 ft | 361 kts | 275° |
| 2026-05-05 11:11 | 27.59852 | 121.49990 | 20811 ft | 359 kts | 276° |
| 2026-05-05 11:11 | 27.60332 | 121.47236 | 20270 ft | 357 kts | 276° |
| 2026-05-05 11:11 | 27.60809 | 121.44500 | 19877 ft | 351 kts | 276° |
| 2026-05-05 11:12 | 27.61273 | 121.41851 | 19743 ft | 337 kts | 276° |
| 2026-05-05 11:12 | 27.61718 | 121.39312 | 19616 ft | 323 kts | 276° |
| 2026-05-05 11:12 | 27.62142 | 121.36877 | 19492 ft | 310 kts | 276° |
| 2026-05-05 11:12 | 27.62547 | 121.34545 | 19369 ft | 298 kts | 276° |
| 2026-05-05 11:13 | 27.62937 | 121.32297 | 19256 ft | 286 kts | 276° |
| 2026-05-05 11:13 | 27.63305 | 121.30168 | 19125 ft | 275 kts | 276° |
| 2026-05-05 11:13 | 27.63662 | 121.28099 | 19007 ft | 263 kts | 275° |
| 2026-05-05 11:13 | 27.64004 | 121.26115 | 18878 ft | 252 kts | 275° |
| 2026-05-05 11:14 | 27.64332 | 121.24213 | 18767 ft | 242 kts | 276° |
| 2026-05-05 11:14 | 27.64646 | 121.22391 | 18650 ft | 232 kts | 276° |
| 2026-05-05 11:14 | 27.64945 | 121.20649 | 18512 ft | 222 kts | 276° |
| 2026-05-05 11:14 | 27.65233 | 121.18963 | 18413 ft | 218 kts | 276° |
| 2026-05-05 11:15 | 27.65520 | 121.17271 | 18343 ft | 219 kts | 276° |
| 2026-05-05 11:15 | 27.65803 | 121.15627 | 18269 ft | 207 kts | 276° |
| 2026-05-05 11:15 | 27.66067 | 121.14103 | 18133 ft | 195 kts | 276° |
| 2026-05-05 11:15 | 27.66279 | 121.12610 | 18078 ft | 192 kts | 270° |
| 2026-05-05 11:16 | 27.66273 | 121.11119 | 18031 ft | 189 kts | 264° |
| 2026-05-05 11:16 | 27.66195 | 121.09661 | 17626 ft | 185 kts | 264° |
| 2026-05-05 11:16 | 27.66109 | 121.08204 | 17003 ft | 188 kts | 264° |
| 2026-05-05 11:16 | 27.66021 | 121.06718 | 16421 ft | 191 kts | 264° |
| 2026-05-05 11:17 | 27.65935 | 121.05210 | 15845 ft | 194 kts | 264° |
| 2026-05-05 11:17 | 27.65850 | 121.03688 | 15276 ft | 196 kts | 265° |
| 2026-05-05 11:17 | 27.65766 | 121.02174 | 14757 ft | 196 kts | 265° |
| 2026-05-05 11:17 | 27.65680 | 121.00636 | 14254 ft | 197 kts | 265° |
| 2026-05-05 11:18 | 27.65595 | 120.99093 | 13721 ft | 197 kts | 265° |
| 2026-05-05 11:18 | 27.65509 | 120.97551 | 13213 ft | 196 kts | 265° |
| 2026-05-05 11:18 | 27.65424 | 120.96017 | 12713 ft | 195 kts | 265° |
| 2026-05-05 11:18 | 27.65338 | 120.94491 | 12213 ft | 195 kts | 265° |
| 2026-05-05 11:19 | 27.65254 | 120.92971 | 11725 ft | 194 kts | 265° |
| 2026-05-05 11:19 | 27.65169 | 120.91450 | 11231 ft | 195 kts | 266° |
| 2026-05-05 11:19 | 27.65083 | 120.89924 | 10742 ft | 196 kts | 266° |
| 2026-05-05 11:19 | 27.64998 | 120.88406 | 10245 ft | 198 kts | 266° |
| 2026-05-05 11:20 | 27.64910 | 120.86848 | 9751 ft | 202 kts | 266° |
| 2026-05-05 11:20 | 27.64825 | 120.85246 | 9551 ft | 203 kts | 266° |
| 2026-05-05 11:20 | 27.64984 | 120.83693 | 9107 ft | 200 kts | 288° |
| 2026-05-05 11:20 | 27.65580 | 120.82264 | 8587 ft | 203 kts | 296° |
| 2026-05-05 11:21 | 27.66268 | 120.80867 | 8090 ft | 204 kts | 297° |
| 2026-05-05 11:21 | 27.66955 | 120.79471 | 7623 ft | 204 kts | 296° |
| 2026-05-05 11:21 | 27.67637 | 120.78067 | 7176 ft | 205 kts | 296° |
| 2026-05-05 11:21 | 27.68308 | 120.76674 | 6865 ft | 205 kts | 296° |
| 2026-05-05 11:22 | 27.68985 | 120.75265 | 6556 ft | 204 kts | 296° |
| 2026-05-05 11:22 | 27.69836 | 120.73999 | 6043 ft | 204 kts | 320° |
| 2026-05-05 11:22 | 27.71162 | 120.73521 | 5356 ft | 206 kts | 4° |
| 2026-05-05 11:22 | 27.72514 | 120.74002 | 4752 ft | 204 kts | 27° |
| 2026-05-05 11:23 | 27.73744 | 120.74778 | 4176 ft | 201 kts | 32° |
| 2026-05-05 11:23 | 27.74902 | 120.75541 | 3895 ft | 184 kts | 32° |
| 2026-05-05 11:23 | 27.75975 | 120.76227 | 3582 ft | 173 kts | 30° |
| 2026-05-05 11:23 | 27.77025 | 120.76862 | 3143 ft | 174 kts | 30° |
| 2026-05-05 11:24 | 27.78098 | 120.77504 | 2644 ft | 175 kts | 30° |
| 2026-05-05 11:24 | 27.79159 | 120.78140 | 2311 ft | 169 kts | 31° |
| 2026-05-05 11:24 | 27.80158 | 120.78747 | 2089 ft | 158 kts | 31° |
| 2026-05-05 11:24 | 27.81094 | 120.79315 | 1885 ft | 148 kts | 31° |
| 2026-05-05 11:25 | 27.81997 | 120.79862 | 1710 ft | 147 kts | 31° |
| 2026-05-05 11:25 | 27.82902 | 120.80408 | 1507 ft | 148 kts | 30° |
| 2026-05-05 11:25 | 27.83795 | 120.80947 | 1312 ft | 147 kts | 29° |
| 2026-05-05 11:25 | 27.84692 | 120.81490 | 1108 ft | 145 kts | 30° |
| 2026-05-05 11:26 | 27.85571 | 120.82023 | 933 ft | 143 kts | 30° |
| 2026-05-05 11:26 | 27.86461 | 120.82553 | 770 ft | 146 kts | 31° |
| 2026-05-05 11:26 | 27.87348 | 120.83104 | 535 ft | 143 kts | 30° |
| 2026-05-05 11:26 | 27.88221 | 120.83629 | 348 ft | 141 kts | 28° |
| 2026-05-05 11:27 | 27.89080 | 120.84153 | 163 ft | 141 kts | 31° |
| 2026-05-05 11:27 | 27.89946 | 120.84666 | 36 ft | 137 kts | 30° |
| 2026-05-05 11:27 | 27.90691 | 120.85125 | 27 ft | 88 kts | 27° |
| 2026-05-05 11:27 | 27.91059 | 120.85305 | 24 ft | 46 kts | 7° |
| 2026-05-05 11:28 | 27.91236 | 120.85290 | 24 ft | 18 kts | 323° |
| 2026-05-05 11:28 | 27.91257 | 120.85173 | 27 ft | 16 kts | 229° |
| 2026-05-05 11:28 | 27.91161 | 120.85102 | 26 ft | 17 kts | 210° |
| 2026-05-05 11:28 | 27.91053 | 120.85036 | 25 ft | 18 kts | 208° |
| 2026-05-05 11:29 | 27.90983 | 120.84936 | 26 ft | 15 kts | 256° |
| 2026-05-05 11:29 | 27.90907 | 120.84859 | 26 ft | 16 kts | 210° |
| 2026-05-05 11:29 | 27.90817 | 120.84799 | 24 ft | 14 kts | 224° |
| 2026-05-05 11:29 | 27.90832 | 120.84727 | 25 ft | 9 kts | 336° |
| 2026-05-05 11:30 | 27.90853 | 120.84719 | 23 ft | 0 kts | 341° |